Time;durP1;ratioP1;P1;durP2;ratioP2;P2;SDS_P1;SDS_P2;PMS_P1;PMS_P2;Temp;Humidity;BMP_temperature;BMP_pressure;BME280_temperature;BME280_humidity;BME280_pressure;Samples;Min_cycle;Max_cycle;Signal;HPM_P1;HPM_P2
2021/10/15 00:02:50;;;;;;;1.67;0.68;;;;;;;14.04;100.00;99936.81;6339514;22;20037;-57
2021/10/15 00:05:53;;;;;;;1.17;0.77;;;;;;;14.04;100.00;99942.41;6339710;22;20025;-57
2021/10/15 00:08:55;;;;;;;1.33;0.85;;;;;;;14.03;100.00;99937.31;6339696;22;20021;-57
2021/10/15 00:11:58;;;;;;;2.60;0.73;;;;;;;14.02;100.00;99938.56;6339499;22;20071;-57
2021/10/15 00:15:04;;;;;;;0.30;0.28;;;;;;;13.99;100.00;99934.00;6339513;22;20080;-56
2021/10/15 00:18:06;;;;;;;1.45;0.68;;;;;;;13.95;100.00;99925.03;6339736;22;20042;-56
2021/10/15 00:21:09;;;;;;;2.58;0.95;;;;;;;13.94;100.00;99926.31;6339580;22;20049;-56
2021/10/15 00:24:12;;;;;;;1.65;0.50;;;;;;;13.89;100.00;99935.41;6315244;22;20018;-57
2021/10/15 00:27:14;;;;;;;3.50;0.70;;;;;;;13.88;100.00;99931.84;6297041;22;21081;-57
2021/10/15 00:30:17;;;;;;;1.55;1.27;;;;;;;13.86;100.00;99930.81;6295005;22;20071;-57
2021/10/15 00:33:20;;;;;;;2.80;0.75;;;;;;;13.90;100.00;99932.13;6296249;22;20986;-57
2021/10/15 00:36:23;;;;;;;0.32;0.30;;;;;;;13.87;100.00;99932.34;6291122;22;20063;-57
2021/10/15 00:39:26;;;;;;;0.52;0.45;;;;;;;13.85;100.00;99934.88;6288875;22;20009;-57
2021/10/15 00:42:29;;;;;;;1.92;0.68;;;;;;;13.82;100.00;99936.63;6290956;22;20013;-57
2021/10/15 00:45:32;;;;;;;1.38;0.73;;;;;;;13.80;100.00;99939.16;6291936;22;20018;-56
2021/10/15 00:48:38;;;;;;;2.83;0.57;;;;;;;13.81;100.00;99928.72;6292039;22;20014;-57
2021/10/15 00:51:43;;;;;;;2.50;0.57;;;;;;;13.77;100.00;99933.78;6292306;22;20076;-56
2021/10/15 00:54:47;;;;;;;2.65;1.17;;;;;;;13.72;100.00;99931.69;6293576;22;21097;-56
2021/10/15 00:57:50;;;;;;;4.68;1.20;;;;;;;13.73;100.00;99927.66;6293803;22;20041;-56
2021/10/15 01:00:53;;;;;;;3.75;0.95;;;;;;;13.70;100.00;99923.81;6293363;22;20041;-56
2021/10/15 01:04:00;;;;;;;0.50;0.35;;;;;;;13.67;100.00;99931.16;6292384;22;20016;-56
2021/10/15 01:07:04;;;;;;;2.85;0.65;;;;;;;13.68;100.00;99921.50;6291489;22;20014;-56
2021/10/15 01:10:07;;;;;;;2.05;1.20;;;;;;;13.73;100.00;99922.06;6292306;22;20014;-56
2021/10/15 01:13:11;;;;;;;1.63;1.20;;;;;;;13.72;100.00;99926.09;6293251;22;20807;-57
2021/10/15 01:16:15;;;;;;;5.20;1.17;;;;;;;13.73;100.00;99919.25;6293025;22;20017;-57
2021/10/15 01:19:18;;;;;;;4.57;0.93;;;;;;;13.71;100.00;99913.38;6292607;22;20018;-57
2021/10/15 01:22:29;;;;;;;1.85;0.63;;;;;;;13.73;100.00;99927.66;6294019;22;20762;-57
2021/10/15 01:25:34;;;;;;;0.83;0.50;;;;;;;13.69;100.00;99931.44;6292582;22;20133;-57
2021/10/15 01:28:37;;;;;;;2.30;0.22;;;;;;;13.67;100.00;99942.34;6291820;22;20098;-57
2021/10/15 01:31:40;;;;;;;1.63;0.98;;;;;;;13.70;100.00;99935.00;6292318;22;20026;-57
2021/10/15 01:34:43;;;;;;;4.35;1.17;;;;;;;13.68;100.00;99943.91;6291707;22;20010;-57
2021/10/15 01:37:46;;;;;;;1.27;0.20;;;;;;;13.72;100.00;99966.06;6291995;22;20643;-57
2021/10/15 01:40:49;;;;;;;1.20;0.43;;;;;;;13.69;100.00;99959.41;6292521;22;20009;-57
2021/10/15 01:43:52;;;;;;;1.23;0.85;;;;;;;13.66;100.00;99956.84;6288144;22;20071;-57
2021/10/15 01:46:55;;;;;;;0.43;0.35;;;;;;;13.66;100.00;99957.59;6288158;22;20018;-58
2021/10/15 01:49:58;;;;;;;0.13;0.13;;;;;;;13.60;100.00;99959.56;6292391;22;20044;-57
2021/10/15 01:53:02;;;;;;;1.17;0.30;;;;;;;13.57;100.00;99957.78;6289814;22;20009;-57
2021/10/15 01:56:05;;;;;;;1.10;0.50;;;;;;;13.54;100.00;99961.56;6290367;22;20740;-57
2021/10/15 01:59:08;;;;;;;0.10;0.10;;;;;;;13.48;100.00;99966.34;6292132;22;20646;-56
2021/10/15 02:02:11;;;;;;;0.35;0.20;;;;;;;13.43;100.00;99966.25;6271783;22;20048;-56
2021/10/15 02:05:16;;;;;;;0.20;0.20;;;;;;;13.40;100.00;99973.63;6290773;22;20033;-57
2021/10/15 02:08:20;;;;;;;2.95;0.43;;;;;;;13.39;100.00;99972.09;6292069;22;20986;-57
2021/10/15 02:11:23;;;;;;;0.43;0.43;;;;;;;13.36;100.00;99956.28;6291742;22;20041;-56
2021/10/15 02:14:26;;;;;;;0.10;0.10;;;;;;;13.30;100.00;99963.84;6292727;22;20076;-56
2021/10/15 02:17:29;;;;;;;0.50;0.30;;;;;;;13.26;100.00;99970.91;6292544;22;20018;-56
2021/10/15 02:20:32;;;;;;;0.38;0.30;;;;;;;13.24;100.00;99977.00;6293257;22;20092;-56
2021/10/15 02:23:35;;;;;;;0.63;0.10;;;;;;;13.23;100.00;99974.69;6292913;22;20014;-54
2021/10/15 02:26:37;;;;;;;5.55;0.43;;;;;;;13.29;100.00;99976.31;6291058;22;20018;-54
2021/10/15 02:29:40;;;;;;;0.35;0.28;;;;;;;13.30;100.00;99989.00;6291242;22;20449;-54
2021/10/15 02:32:46;;;;;;;0.57;0.13;;;;;;;13.26;100.00;99982.88;6291645;22;20022;-54
2021/10/15 02:35:50;;;;;;;0.35;0.20;;;;;;;13.27;100.00;99976.03;6288103;22;20029;-54
2021/10/15 02:38:53;;;;;;;0.40;0.20;;;;;;;13.27;100.00;99975.25;6287220;22;20072;-54
2021/10/15 02:41:55;;;;;;;0.30;0.30;;;;;;;13.28;100.00;99980.34;6289454;22;20780;-56
2021/10/15 02:44:58;;;;;;;0.20;0.20;;;;;;;13.27;100.00;99981.63;6289315;22;20949;-56
2021/10/15 02:48:01;;;;;;;0.20;0.20;;;;;;;13.24;100.00;99977.00;6291496;22;20017;-56
2021/10/15 02:51:04;;;;;;;0.13;0.10;;;;;;;13.23;100.00;99986.63;6291238;22;20005;-56
2021/10/15 02:54:07;;;;;;;0.55;0.32;;;;;;;13.21;100.00;99977.97;6291706;22;20084;-56
2021/10/15 02:57:10;;;;;;;1.23;0.45;;;;;;;13.21;100.00;99989.16;6291871;22;20006;-56
2021/10/15 03:00:14;;;;;;;0.43;0.20;;;;;;;13.20;100.00;99986.84;6293235;22;20075;-56
2021/10/15 03:03:17;;;;;;;14.05;0.90;;;;;;;13.20;100.00;99998.81;6294151;22;20010;-56
2021/10/15 03:06:20;;;;;;;0.70;0.40;;;;;;;13.21;100.00;99986.34;6294324;22;21001;-56
2021/10/15 03:09:23;;;;;;;0.70;0.20;;;;;;;13.20;100.00;99987.63;6292808;22;20792;-56
2021/10/15 03:12:26;;;;;;;0.65;0.10;;;;;;;13.20;100.00;99989.66;6287688;22;20124;-56
2021/10/15 03:15:29;;;;;;;20.38;1.02;;;;;;;13.17;100.00;99999.78;6286926;22;20092;-56
2021/10/15 03:18:32;;;;;;;4.28;0.70;;;;;;;13.17;100.00;100010.97;6287000;22;20040;-56
2021/10/15 03:21:35;;;;;;;1.60;0.22;;;;;;;13.16;100.00;100015.03;6286817;22;20064;-56
2021/10/15 03:24:38;;;;;;;4.90;0.77;;;;;;;13.17;100.00;100016.56;6286681;22;20044;-56
2021/10/15 03:27:41;;;;;;;4.25;0.52;;;;;;;13.18;100.00;100011.75;6287393;22;20018;-56
2021/10/15 03:30:44;;;;;;;1.25;0.43;;;;;;;13.17;100.00;100001.81;6288776;22;20033;-56
2021/10/15 03:33:47;;;;;;;1.33;0.17;;;;;;;13.14;100.00;100011.97;6288858;22;20033;-56
2021/10/15 03:36:50;;;;;;;12.40;0.95;;;;;;;13.14;100.00;100017.56;6289141;22;20056;-56
2021/10/15 03:39:53;;;;;;;6.82;0.98;;;;;;;13.12;100.00;100020.06;6288520;22;20203;-56
2021/10/15 03:42:56;;;;;;;1.65;0.40;;;;;;;13.14;100.00;100025.94;6289095;22;20068;-56
2021/10/15 03:45:58;;;;;;;0.63;0.30;;;;;;;13.11;100.00;100032.50;6271262;22;20042;-56
2021/10/15 03:49:01;;;;;;;1.73;0.55;;;;;;;13.09;100.00;100031.44;6265414;22;20030;-56
2021/10/15 03:52:05;;;;;;;0.80;0.57;;;;;;;13.05;100.00;100045.66;6287589;22;20071;-56
2021/10/15 03:55:11;;;;;;;0.77;0.13;;;;;;;13.04;100.00;100046.13;6288761;22;20793;-56
2021/10/15 03:58:14;;;;;;;4.80;0.40;;;;;;;13.02;100.00;100052.19;6291878;22;20381;-56
2021/10/15 04:01:16;;;;;;;0.10;0.10;;;;;;;12.98;100.00;100060.00;6294135;22;20043;-56
2021/10/15 04:04:19;;;;;;;1.00;0.57;;;;;;;12.87;100.00;100065.44;6294375;22;20064;-56
2021/10/15 04:07:23;;;;;;;7.28;0.35;;;;;;;12.63;100.00;100064.81;6292935;22;20996;-56
2021/10/15 04:10:25;;;;;;;0.35;0.35;;;;;;;12.50;100.00;100058.75;6290195;22;20292;-56
2021/10/15 04:13:28;;;;;;;0.10;0.10;;;;;;;12.37;100.00;100075.81;6290291;22;20075;-56
2021/10/15 04:16:32;;;;;;;0.20;0.20;;;;;;;12.23;100.00;100073.03;6289882;22;20102;-56
2021/10/15 04:19:36;;;;;;;0.15;0.15;;;;;;;12.07;100.00;100077.84;6290568;22;20049;-56
2021/10/15 04:22:39;;;;;;;0.25;0.25;;;;;;;11.92;100.00;100082.66;6291009;22;20190;-56
2021/10/15 04:25:42;;;;;;;2.40;0.40;;;;;;;11.77;100.00;100081.06;6289889;22;20014;-56
2021/10/15 04:28:45;;;;;;;3.17;0.40;;;;;;;11.62;100.00;100086.59;6290028;22;20017;-56
2021/10/15 04:31:48;;;;;;;0.43;0.13;;;;;;;11.48;100.00;100080.97;6291853;22;20266;-56
2021/10/15 04:34:51;;;;;;;0.45;0.22;;;;;;;11.40;100.00;100086.13;6293338;22;20013;-56
2021/10/15 04:37:54;;;;;;;4.35;0.25;;;;;;;11.37;100.00;100087.84;6293848;22;20009;-56
2021/10/15 04:40:57;;;;;;;1.50;0.20;;;;;;;11.31;100.00;100080.63;6293485;22;20166;-56
2021/10/15 04:43:59;;;;;;;0.20;0.10;;;;;;;11.29;100.00;100091.47;6293040;22;20545;-56
2021/10/15 04:47:03;;;;;;;0.63;0.20;;;;;;;11.28;100.00;100103.88;6291820;22;20656;-56
2021/10/15 04:50:07;;;;;;;0.20;0.20;;;;;;;11.22;100.00;100097.41;6292032;22;20175;-56
2021/10/15 04:53:09;;;;;;;3.58;0.30;;;;;;;11.12;100.00;100102.28;6290558;22;20784;-56
2021/10/15 04:56:12;;;;;;;0.10;0.10;;;;;;;11.06;100.00;100101.38;6291839;22;20077;-56
2021/10/15 04:59:15;;;;;;;0.75;0.30;;;;;;;11.03;100.00;100107.13;6293022;22;20009;-56
2021/10/15 05:02:19;;;;;;;0.10;0.10;;;;;;;11.02;100.00;100116.72;6292744;22;20043;-56
2021/10/15 05:05:27;;;;;;;0.60;0.32;;;;;;;10.98;100.00;100127.28;6293246;22;20079;-56
2021/10/15 05:08:33;;;;;;;0.77;0.52;;;;;;;10.92;100.00;100129.16;6293350;22;20021;-56
2021/10/15 05:11:43;;;;;;;0.45;0.40;;;;;;;10.86;100.00;100133.81;6293740;22;20131;-56
2021/10/15 05:14:47;;;;;;;0.10;0.10;;;;;;;10.84;100.00;100136.31;6293053;22;20934;-56
2021/10/15 05:17:50;;;;;;;0.15;0.15;;;;;;;10.74;100.00;100140.38;6293481;22;20099;-56
2021/10/15 05:20:53;;;;;;;0.20;0.10;;;;;;;10.78;100.00;100144.53;6292126;22;20076;-56
2021/10/15 05:23:56;;;;;;;1.23;0.45;;;;;;;10.73;100.00;100144.41;6292072;22;20034;-56
2021/10/15 05:26:59;;;;;;;0.82;0.35;;;;;;;10.65;100.00;100153.06;6293248;22;20233;-56
2021/10/15 05:30:04;;;;;;;3.20;0.20;;;;;;;10.55;100.00;100146.00;6293006;22;20269;-56
2021/10/15 05:33:07;;;;;;;0.32;0.32;;;;;;;10.42;100.00;100147.41;6293392;22;20517;-56
2021/10/15 05:36:10;;;;;;;0.30;0.30;;;;;;;10.38;100.00;100158.72;6293657;22;20009;-56
2021/10/15 05:39:14;;;;;;;1.10;0.55;;;;;;;10.24;100.00;100162.16;6292866;22;20013;-56
2021/10/15 05:42:17;;;;;;;0.10;0.10;;;;;;;10.06;100.00;100158.56;6291338;22;20497;-55
2021/10/15 05:45:20;;;;;;;0.28;0.20;;;;;;;9.86;100.00;100162.59;6290829;22;20111;-55
2021/10/15 05:48:24;;;;;;;0.20;0.20;;;;;;;9.74;100.00;100171.09;6291059;22;20961;-55
2021/10/15 05:51:29;;;;;;;0.20;0.20;;;;;;;9.58;100.00;100168.59;6290760;22;20064;-55
2021/10/15 05:55:27;;;;;;;0.10;0.10;;;;;;;9.45;100.00;100170.72;6286949;22;20022;-56
2021/10/15 06:01:22;;;;;;;0.10;0.10;;;;;;;9.07;100.00;100176.66;6289142;22;20115;-55
2021/10/15 06:17:22;;;;;;;1.30;0.65;;;;;;;8.50;100.00;100207.81;6290224;22;20052;-55
2021/10/15 06:20:25;;;;;;;2.13;0.40;;;;;;;8.40;100.00;100209.75;6323507;22;20025;-55
2021/10/15 06:23:30;;;;;;;0.50;0.10;;;;;;;8.28;100.00;100207.81;6338740;22;20022;-55
2021/10/15 06:26:34;;;;;;;0.77;0.40;;;;;;;8.16;100.00;100216.94;6338845;22;20022;-55
2021/10/15 06:29:37;;;;;;;0.50;0.50;;;;;;;8.05;100.00;100222.09;6338948;22;20071;-54
2021/10/15 06:32:39;;;;;;;1.00;0.40;;;;;;;7.99;100.00;100218.34;6339223;22;20068;-55
2021/10/15 06:35:42;;;;;;;1.48;0.30;;;;;;;7.97;100.00;100216.00;6339081;22;20347;-54
2021/10/15 06:38:45;;;;;;;0.30;0.30;;;;;;;8.03;100.00;100225.31;6338887;22;20033;-55
2021/10/15 06:41:48;;;;;;;0.10;0.10;;;;;;;8.08;100.00;100227.50;6339260;22;20083;-54
2021/10/15 06:44:50;;;;;;;5.07;0.50;;;;;;;8.07;100.00;100239.06;6338616;22;20053;-55
2021/10/15 06:47:53;;;;;;;0.17;0.17;;;;;;;8.08;100.00;100237.81;6338953;22;20136;-58
2021/10/15 06:50:56;;;;;;;0.20;0.20;;;;;;;8.05;100.00;100250.59;6338496;22;20399;-58
2021/10/15 06:53:59;;;;;;;0.47;0.40;;;;;;;8.09;100.00;100251.25;6338820;22;20022;-58
2021/10/15 06:57:02;;;;;;;0.20;0.20;;;;;;;8.11;100.00;100253.56;6338758;22;20336;-58
2021/10/15 07:00:07;;;;;;;0.30;0.30;;;;;;;8.19;100.00;100257.63;6338498;22;20025;-58
2021/10/15 07:03:17;;;;;;;0.80;0.75;;;;;;;8.20;100.00;100261.97;6319424;22;20359;-58
2021/10/15 07:06:21;;;;;;;0.10;0.10;;;;;;;8.15;100.00;100260.56;6339776;22;20022;-59
2021/10/15 07:09:23;;;;;;;2.83;0.68;;;;;;;8.10;100.00;100269.44;6338644;22;20346;-59
2021/10/15 07:12:27;;;;;;;0.10;0.10;;;;;;;8.05;100.00;100277.56;6340182;22;20022;-59
2021/10/15 07:15:30;;;;;;;0.20;0.20;;;;;;;8.01;100.00;100277.66;6339737;22;20022;-59
2021/10/15 07:18:34;;;;;;;0.10;0.10;;;;;;;7.96;100.00;100280.25;6341068;22;20064;-59
2021/10/15 07:21:37;;;;;;;0.20;0.20;;;;;;;7.92;100.00;100290.69;6340508;22;20101;-59
2021/10/15 07:24:40;;;;;;;1.27;0.40;;;;;;;7.88;100.00;100285.25;6340484;22;20091;-55
2021/10/15 07:27:42;;;;;;;0.10;0.10;;;;;;;7.90;100.00;100291.13;6340693;22;20025;-55
2021/10/15 07:30:45;;;;;;;0.35;0.30;;;;;;;7.92;100.00;100307.31;6321326;22;20025;-55
2021/10/15 07:33:48;;;;;;;0.20;0.20;;;;;;;7.95;100.00;100306.44;6340471;22;20029;-55
2021/10/15 07:36:52;;;;;;;0.20;0.20;;;;;;;7.96;100.00;100319.06;6321437;22;20022;-55
2021/10/15 07:39:55;;;;;;;3.75;0.65;;;;;;;7.94;100.00;100322.28;6321331;22;20089;-54
2021/10/15 07:42:58;;;;;;;0.93;0.70;;;;;;;7.98;100.00;100327.72;6340668;22;20459;-59
2021/10/15 07:46:02;;;;;;;2.45;0.73;;;;;;;7.96;100.00;100338.47;6340496;22;20161;-59
2021/10/15 07:49:06;;;;;;;7.10;0.75;;;;;;;7.98;100.00;100349.91;6340594;22;20033;-59
2021/10/15 07:52:09;;;;;;;2.00;0.40;;;;;;;8.02;100.00;100356.09;6340313;22;20385;-59
2021/10/15 07:55:12;;;;;;;0.60;0.38;;;;;;;8.07;100.00;100352.78;6339872;22;20371;-59
2021/10/15 07:58:15;;;;;;;0.20;0.20;;;;;;;8.09;100.00;100362.22;6339940;22;20073;-59
2021/10/15 08:01:18;;;;;;;1.55;0.22;;;;;;;8.18;100.00;100369.84;6340080;22;20456;-59
2021/10/15 08:15:15;;;;;;;0.20;0.20;;;;;;;8.45;100.00;100378.47;5110366;27;20361;-56
2021/10/15 08:18:19;;;;;;;0.30;0.30;;;;;;;8.49;100.00;100379.09;5109771;28;20218;-55
2021/10/15 08:21:23;;;;;;;0.20;0.20;;;;;;;8.64;100.00;100374.63;5110199;28;20131;-55
2021/10/15 08:24:28;;;;;;;1.27;0.30;;;;;;;8.72;100.00;100381.50;5110194;28;20507;-55
2021/10/15 08:27:32;;;;;;;0.40;0.40;;;;;;;8.85;100.00;100382.22;5110309;28;20058;-57
2021/10/15 08:30:35;;;;;;;2.83;0.35;;;;;;;9.00;100.00;100386.03;5110464;28;20126;-58
2021/10/15 08:33:39;;;;;;;0.10;0.10;;;;;;;9.17;100.00;100394.94;5110370;28;20042;-58
2021/10/15 08:36:43;;;;;;;0.20;0.20;;;;;;;9.15;100.00;100387.06;5110459;28;20104;-58
2021/10/15 08:39:46;;;;;;;0.20;0.20;;;;;;;9.25;100.00;100398.25;5110589;28;20101;-58
2021/10/15 08:42:56;;;;;;;0.35;0.25;;;;;;;9.23;100.00;100395.13;5110143;28;20060;-58
2021/10/15 08:45:59;;;;;;;1.08;0.20;;;;;;;9.23;100.00;100397.91;5110110;28;20055;-58
2021/10/15 08:49:03;;;;;;;2.85;0.43;;;;;;;9.22;100.00;100402.72;5110151;28;20038;-58
2021/10/15 08:52:06;;;;;;;0.20;0.20;;;;;;;9.22;100.00;100401.94;5110011;28;20189;-57
2021/10/15 08:55:09;;;;;;;0.17;0.17;;;;;;;9.22;100.00;100390.81;5110037;28;20093;-57
2021/10/15 08:58:12;;;;;;;0.10;0.10;;;;;;;9.18;100.00;100405.59;5109919;28;20143;-58
2021/10/15 09:01:15;;;;;;;4.57;0.65;;;;;;;9.33;100.00;100407.88;5108932;28;20067;-58
2021/10/15 09:04:19;;;;;;;0.10;0.10;;;;;;;9.43;100.00;100407.47;5109137;28;20034;-57
2021/10/15 09:07:24;;;;;;;0.20;0.20;;;;;;;9.51;100.00;100407.97;5109255;28;20568;-58
2021/10/15 09:10:30;;;;;;;0.43;0.43;;;;;;;9.53;100.00;100411.09;5109631;28;20066;-58
2021/10/15 09:13:33;;;;;;;0.30;0.30;;;;;;;9.56;100.00;100404.59;5108521;28;20101;-58
2021/10/15 09:16:54;;;;;;;1.27;0.70;;;;;;;9.63;100.00;100410.69;5095087;28;20396;-58
2021/10/15 09:19:59;;;;;;;0.20;0.20;;;;;;;9.67;100.00;100405.75;5095652;28;20055;-52
2021/10/15 09:23:02;;;;;;;0.28;0.28;;;;;;;9.75;100.00;100407.03;5095764;28;20059;-53
2021/10/15 09:26:07;;;;;;;0.10;0.10;;;;;;;9.84;100.00;100409.84;5095853;28;20150;-53
2021/10/15 09:29:10;;;;;;;0.20;0.20;;;;;;;9.98;100.00;100414.09;5095778;28;20127;-53
2021/10/15 09:32:14;;;;;;;0.20;0.20;;;;;;;10.05;100.00;100418.59;5095283;28;20479;-54
2021/10/15 09:35:24;;;;;;;0.40;0.40;;;;;;;10.11;100.00;100422.34;5094210;28;20526;-54
2021/10/15 09:38:27;;;;;;;0.60;0.32;;;;;;;10.21;100.00;100421.94;5095657;28;20046;-53
2021/10/15 09:41:40;;;;;;;0.20;0.20;;;;;;;10.21;100.00;100427.50;5095615;28;20043;-53
2021/10/15 09:44:43;;;;;;;0.20;0.20;;;;;;;10.19;100.00;100424.41;5095371;28;20035;-52
2021/10/15 09:47:48;;;;;;;0.47;0.38;;;;;;;10.20;100.00;100425.94;5095592;28;20048;-53
2021/10/15 09:51:16;;;;;;;1.33;0.50;;;;;;;10.19;100.00;100435.53;5095129;28;20043;-53
2021/10/15 09:54:22;;;;;;;3.13;0.20;;;;;;;10.20;100.00;100437.06;5095163;28;20515;-52
2021/10/15 09:57:37;;;;;;;0.10;0.10;;;;;;;10.27;100.00;100425.66;5095253;28;20047;-53
2021/10/15 10:00:41;;;;;;;1.35;0.57;;;;;;;10.34;100.00;100432.94;5095144;28;20101;-53
2021/10/15 10:03:45;;;;;;;0.10;0.10;;;;;;;10.41;100.00;100441.78;5094915;28;20097;-53
2021/10/15 10:06:49;;;;;;;0.75;0.20;;;;;;;10.49;100.00;100447.81;5095121;28;20086;-53
2021/10/15 10:09:52;;;;;;;0.52;0.52;;;;;;;10.64;100.00;100440.44;5095329;28;20115;-53
2021/10/15 10:12:55;;;;;;;0.57;0.57;;;;;;;10.73;100.00;100459.16;5094727;28;20047;-53
2021/10/15 10:15:58;;;;;;;4.00;0.45;;;;;;;10.72;100.00;100452.06;5094763;28;20046;-53
2021/10/15 10:19:03;;;;;;;0.93;0.43;;;;;;;10.75;100.00;100451.13;5095004;28;20055;-53
2021/10/15 10:22:06;;;;;;;0.85;0.30;;;;;;;10.81;100.00;100457.63;5094681;28;20047;-55
2021/10/15 10:25:12;;;;;;;0.55;0.17;;;;;;;10.97;100.00;100451.78;5094533;28;20128;-54
2021/10/15 10:28:21;;;;;;;0.85;0.63;;;;;;;11.01;100.00;100457.97;5094181;28;20109;-55
2021/10/15 10:31:23;;;;;;;4.28;0.60;;;;;;;11.03;100.00;100455.47;5094740;28;20468;-56
2021/10/15 10:34:27;;;;;;;1.08;0.63;;;;;;;11.02;100.00;100456.75;5094678;28;20388;-55
2021/10/15 10:37:30;;;;;;;0.40;0.40;;;;;;;11.09;100.00;100462.75;5094624;28;20043;-53
2021/10/15 10:40:33;;;;;;;3.80;0.45;;;;;;;11.16;100.00;100461.69;5094601;28;20514;-52
2021/10/15 10:43:42;;;;;;;1.23;0.20;;;;;;;11.26;100.00;100469.56;5094355;28;20538;-52
2021/10/15 10:47:10;;;;;;;7.85;0.95;;;;;;;11.25;100.00;100464.47;5094230;28;20038;-52
2021/10/15 10:50:15;;;;;;;1.80;0.25;;;;;;;11.37;100.00;100469.09;5094057;28;20085;-53
2021/10/15 10:53:18;;;;;;;2.28;0.20;;;;;;;11.45;100.00;100473.16;5094102;28;20127;-53
2021/10/15 10:56:39;;;;;;;2.67;0.75;;;;;;;11.41;100.00;100462.13;5093917;28;20046;-52
2021/10/15 10:59:43;;;;;;;9.70;0.35;;;;;;;11.60;100.00;100473.28;5093848;28;20042;-53
2021/10/15 11:02:49;;;;;;;6.28;1.25;;;;;;;11.53;100.00;100463.22;5093661;28;20129;-52
2021/10/15 11:05:55;;;;;;;0.47;0.35;;;;;;;11.47;100.00;100470.66;5092717;28;20055;-50
2021/10/15 11:09:27;;;;;;;10.32;0.57;;;;;;;11.40;100.00;100465.41;5093191;28;20042;-50
2021/10/15 11:12:30;;;;;;;0.13;0.13;;;;;;;11.33;100.00;100476.84;5092768;28;20130;-51
2021/10/15 11:15:34;;;;;;;16.65;0.40;;;;;;;11.38;100.00;100473.44;5093461;28;20039;-51
2021/10/15 11:18:38;;;;;;;1.85;0.30;;;;;;;11.51;100.00;100471.28;5093313;28;20096;-51
2021/10/15 11:21:40;;;;;;;9.63;0.77;;;;;;;11.73;100.00;100474.69;5092861;28;20047;-51
2021/10/15 11:25:05;;;;;;;2.05;1.20;;;;;;;11.98;100.00;100487.47;5092924;28;20137;-50
2021/10/15 11:28:12;;;;;;;2.00;0.95;;;;;;;12.17;100.00;100483.41;5092960;28;20058;-51
2021/10/15 11:31:17;;;;;;;5.30;0.47;;;;;;;12.22;100.00;100479.16;5093094;28;20062;-52
2021/10/15 11:34:21;;;;;;;0.40;0.30;;;;;;;12.20;100.00;100476.84;5093037;28;20141;-51
2021/10/15 11:37:50;;;;;;;3.78;0.80;;;;;;;12.24;100.00;100473.88;5092679;28;20419;-52
2021/10/15 11:40:56;;;;;;;0.10;0.10;;;;;;;12.34;100.00;100467.03;5092525;28;20092;-51
2021/10/15 11:43:59;;;;;;;1.20;0.40;;;;;;;12.59;100.00;100472.16;5092321;28;20036;-52
2021/10/15 11:47:02;;;;;;;0.60;0.20;;;;;;;12.93;100.00;100460.44;5092642;28;20082;-51
2021/10/15 11:50:09;;;;;;;9.07;0.77;;;;;;;13.20;100.00;100463.06;5092931;28;20048;-51
2021/10/15 11:53:15;;;;;;;4.57;0.47;;;;;;;13.46;100.00;100466.88;5093210;28;20390;-52
2021/10/15 11:56:26;;;;;;;2.55;0.50;;;;;;;13.69;100.00;100466.03;5092863;28;20066;-52
2021/10/15 11:59:30;;;;;;;;;;;;;;;13.79;100.00;100468.72;5093083;28;20157;-51
2021/10/15 12:02:45;;;;;;;0.30;0.30;;;;;;;14.06;100.00;100476.81;5092330;28;20283;-51
2021/10/15 12:05:49;;;;;;;1.27;0.20;;;;;;;14.02;100.00;100479.03;5092110;28;20541;-52
2021/10/15 12:08:58;;;;;;;0.35;0.28;;;;;;;13.77;100.00;100465.66;5092207;28;20139;-52
2021/10/15 12:12:04;;;;;;;0.10;0.10;;;;;;;13.42;100.00;100469.09;5092318;28;20478;-51
2021/10/15 12:15:07;;;;;;;0.40;0.30;;;;;;;13.13;100.00;100469.03;5092380;28;20047;-51
2021/10/15 12:18:09;;;;;;;2.05;0.47;;;;;;;12.89;100.00;100465.44;5092508;28;20046;-51
2021/10/15 12:21:13;;;;;;;0.17;0.10;;;;;;;12.71;100.00;100466.34;5092542;28;20046;-52
2021/10/15 12:24:36;;;;;;;2.13;0.38;;;;;;;12.67;100.00;100465.75;5092512;28;20043;-51
2021/10/15 12:27:40;;;;;;;15.80;1.55;;;;;;;12.55;100.00;100474.34;5091863;28;20047;-50
2021/10/15 12:30:44;;;;;;;0.10;0.10;;;;;;;12.55;100.00;100468.75;5091945;28;20163;-51
2021/10/15 12:34:00;;;;;;;3.72;0.40;;;;;;;12.42;100.00;100462.63;5091882;28;20108;-51
2021/10/15 12:37:09;;;;;;;0.10;0.10;;;;;;;12.32;100.00;100463.94;5092043;28;20503;-51
2021/10/15 12:40:21;;;;;;;6.88;0.20;;;;;;;12.23;100.00;100461.19;5091949;28;20185;-51
2021/10/15 12:43:27;;;;;;;2.08;0.70;;;;;;;12.03;100.00;100462.50;5092053;28;20035;-51
2021/10/15 12:46:29;;;;;;;0.20;0.10;;;;;;;11.98;100.00;100468.72;5091796;28;20047;-51
2021/10/15 12:49:56;;;;;;;0.22;0.22;;;;;;;12.13;100.00;100452.84;5091997;28;20051;-51
2021/10/15 12:53:15;;;;;;;0.80;0.80;;;;;;;12.42;100.00;100459.84;5095561;28;20039;-51
2021/10/15 12:56:31;;;;;;;2.10;1.00;;;;;;;12.72;100.00;100451.13;5095980;28;20043;-52
2021/10/15 12:59:34;;;;;;;0.95;0.30;;;;;;;12.92;100.00;100453.31;5095484;28;20082;-52
2021/10/15 13:02:37;;;;;;;0.47;0.20;;;;;;;13.19;100.00;100455.91;5095406;28;20129;-52
2021/10/15 13:05:40;;;;;;;2.15;0.40;;;;;;;13.49;100.00;100446.31;5095841;28;20089;-52
2021/10/15 13:08:49;;;;;;;5.13;0.68;;;;;;;13.81;100.00;100455.03;5095743;28;20043;-53
2021/10/15 13:11:52;;;;;;;2.15;0.28;;;;;;;14.13;100.00;100448.41;5095542;28;20384;-52
2021/10/15 13:14:55;;;;;;;4.28;0.20;;;;;;;14.38;100.00;100454.19;5095685;28;20059;-53
2021/10/15 13:17:58;;;;;;;5.70;1.27;;;;;;;14.60;100.00;100459.34;5095778;28;20093;-53
2021/10/15 13:21:01;;;;;;;1.90;0.43;;;;;;;14.71;100.00;100453.88;5095943;28;20047;-53
2021/10/15 13:24:04;;;;;;;0.80;0.52;;;;;;;14.78;100.00;100453.47;5095630;28;20039;-52
2021/10/15 13:27:07;;;;;;;4.40;0.60;;;;;;;14.79;100.00;100448.66;5095686;28;20051;-53
2021/10/15 13:30:11;;;;;;;0.65;0.17;;;;;;;14.72;100.00;100461.06;5095537;28;20062;-53
2021/10/15 13:33:19;;;;;;;0.20;0.20;;;;;;;14.66;100.00;100451.03;5095532;28;20055;-52
2021/10/15 13:36:22;;;;;;;1.48;0.40;;;;;;;14.65;100.00;100446.66;5095535;28;20495;-52
2021/10/15 13:39:30;;;;;;;1.45;0.30;;;;;;;14.51;100.00;100444.69;5095332;28;20039;-52
2021/10/15 13:45:40;;;;;;;0.28;0.20;;;;;;;14.28;100.00;100449.16;5095247;28;20039;-52
2021/10/15 13:52:06;;;;;;;4.25;0.47;;;;;;;14.15;100.00;100446.69;5094690;28;20117;-53
2021/10/15 13:55:10;;;;;;;3.45;0.40;;;;;;;14.00;100.00;100445.94;5094752;28;20042;-52
2021/10/15 13:58:37;;;;;;;0.40;0.30;;;;;;;13.92;100.00;100444.00;5094977;28;20082;-52
2021/10/15 14:01:40;;;;;;;1.48;0.20;;;;;;;13.85;100.00;100444.41;5094833;28;20059;-52
2021/10/15 14:04:45;;;;;;;0.20;0.17;;;;;;;13.93;100.00;100448.34;5094866;28;20043;-52
2021/10/15 14:07:48;;;;;;;5.47;0.85;;;;;;;13.93;100.00;100451.13;5094679;28;20051;-53
2021/10/15 14:10:52;;;;;;;0.10;0.10;;;;;;;14.04;100.00;100451.31;5094709;28;20388;-52
2021/10/15 14:13:54;;;;;;;0.20;0.20;;;;;;;14.15;100.00;100446.69;5094129;28;20142;-52
2021/10/15 14:16:57;;;;;;;1.65;0.63;;;;;;;14.28;100.00;100440.75;5094824;28;20550;-52
2021/10/15 14:20:00;;;;;;;0.95;0.55;;;;;;;14.38;100.00;100440.19;5094688;28;20043;-51
2021/10/15 14:23:04;;;;;;;0.32;0.32;;;;;;;14.44;100.00;100434.66;5094529;28;20043;-52
2021/10/15 14:26:08;;;;;;;0.15;0.10;;;;;;;14.40;100.00;100436.91;5094493;28;20054;-52
2021/10/15 14:29:11;;;;;;;1.10;0.52;;;;;;;14.24;100.00;100440.19;5093213;28;20047;-51
2021/10/15 14:32:14;;;;;;;0.10;0.10;;;;;;;14.11;100.00;100440.50;5093308;28;20241;-52
2021/10/15 14:35:18;;;;;;;0.10;0.10;;;;;;;13.88;100.00;100438.59;5094617;28;20093;-52
2021/10/15 14:38:21;;;;;;;1.30;0.30;;;;;;;13.72;100.00;100446.72;5094023;28;20042;-52
2021/10/15 14:41:24;;;;;;;0.25;0.25;;;;;;;13.55;100.00;100438.81;5094366;28;20557;-52
2021/10/15 14:44:27;;;;;;;2.20;0.30;;;;;;;13.36;100.00;100454.22;5094010;28;20044;-52
2021/10/15 14:47:30;;;;;;;0.10;0.10;;;;;;;13.27;100.00;100451.53;5094096;28;20051;-52
2021/10/15 14:50:33;;;;;;;0.60;0.30;;;;;;;13.24;100.00;100446.09;5093846;28;20396;-52